createdAt,value
2017-08-01T00:00:23.201Z,98267.55
2017-08-01T00:02:50.661Z,98264.02
2017-08-01T00:05:18.129Z,98257.32
2017-08-01T00:07:45.573Z,98254.09
2017-08-01T00:10:13.046Z,98250.53
2017-08-01T00:12:40.653Z,98248.33
2017-08-01T00:15:08.097Z,98243.34
2017-08-01T00:17:35.537Z,98246.62
2017-08-01T00:20:03.337Z,98250.20
2017-08-01T00:22:30.786Z,98235.96
2017-08-01T00:24:58.237Z,98240.96
2017-08-01T00:27:25.724Z,98238.51
2017-08-01T00:29:53.168Z,98236.25
2017-08-01T00:32:20.618Z,98232.06
2017-08-01T00:34:48.101Z,98235.89
2017-08-01T00:37:15.557Z,98236.03
2017-08-01T00:39:43.133Z,98222.91
2017-08-01T00:42:10.583Z,98218.70
2017-08-01T00:44:38.046Z,98219.55
2017-08-01T00:47:05.817Z,98220.81
2017-08-01T00:49:33.271Z,98216.87
2017-08-01T00:52:00.887Z,98219.19
2017-08-01T00:54:28.346Z,98225.04
2017-08-01T00:56:56.104Z,98221.96
2017-08-01T00:59:23.577Z,98221.78
2017-08-01T01:01:51.057Z,98222.93
2017-08-01T01:04:18.516Z,98224.43
2017-08-01T01:06:46.181Z,98225.39
2017-08-01T01:09:13.623Z,98225.11
2017-08-01T01:11:41.070Z,98221.55
2017-08-01T01:14:08.689Z,98216.75
2017-08-01T01:16:36.128Z,98222.23
2017-08-01T01:19:03.572Z,98217.66
2017-08-01T01:21:31.029Z,98219.34
2017-08-01T01:23:58.477Z,98218.02
2017-08-01T01:26:25.985Z,98221.41
2017-08-01T01:28:53.429Z,98221.25
2017-08-01T01:31:20.886Z,98224.33
2017-08-01T01:33:48.364Z,98216.30
2017-08-01T01:36:15.812Z,98213.59
2017-08-01T01:38:43.596Z,98213.35
2017-08-01T01:41:11.037Z,98214.98
2017-08-01T01:43:38.489Z,98209.68
2017-08-01T01:46:06.286Z,98217.13
2017-08-01T01:48:33.738Z,98220.16
2017-08-01T01:51:01.184Z,98219.45
2017-08-01T01:53:28.672Z,98219.19
2017-08-01T01:55:56.239Z,98220.61
2017-08-01T01:58:23.689Z,98211.39
2017-08-01T02:00:51.127Z,98214.11
2017-08-01T02:03:18.801Z,98211.58
2017-08-01T02:05:46.235Z,98213.64
2017-08-01T02:08:13.677Z,98217.58
2017-08-01T02:10:41.140Z,98214.78
2017-08-01T02:13:08.591Z,98214.25
2017-08-01T02:15:36.415Z,98209.56
2017-08-01T02:18:03.860Z,98215.56
2017-08-01T02:20:31.298Z,98210.06
2017-08-01T02:22:58.773Z,98213.23
2017-08-01T02:25:26.216Z,98211.52
2017-08-01T02:27:53.664Z,98211.75
2017-08-01T02:30:21.154Z,98221.45
2017-08-01T02:32:48.596Z,98214.19
2017-08-01T02:35:16.049Z,98207.56
2017-08-01T02:37:43.525Z,98210.47
2017-08-01T02:40:10.991Z,98212.88
2017-08-01T02:42:38.461Z,98219.31
2017-08-01T02:45:05.914Z,98214.80
2017-08-01T02:47:33.397Z,98215.52
2017-08-01T02:50:00.835Z,98212.93
2017-08-01T02:52:28.297Z,98216.14
2017-08-01T02:54:55.773Z,98228.52
2017-08-01T02:57:23.245Z,98228.09
2017-08-01T02:59:50.694Z,98236.41
2017-08-01T03:02:18.161Z,98236.30
2017-08-01T03:04:45.606Z,98232.80
2017-08-01T03:07:13.052Z,98228.39
2017-08-01T03:09:40.529Z,98231.00
2017-08-01T03:12:07.976Z,98235.01
2017-08-01T03:14:35.420Z,98227.55
2017-08-01T03:17:02.886Z,98232.88
2017-08-01T03:19:30.356Z,98232.56
2017-08-01T03:21:57.802Z,98245.73
2017-08-01T03:24:25.269Z,98236.93
2017-08-01T03:26:52.708Z,98241.26
2017-08-01T03:29:20.157Z,98244.88
2017-08-01T03:31:47.624Z,98238.23
2017-08-01T03:34:15.063Z,98246.45
2017-08-01T03:36:42.537Z,98242.81
2017-08-01T03:39:10.361Z,98242.34
2017-08-01T03:41:37.807Z,98241.44
2017-08-01T03:44:05.260Z,98241.44
2017-08-01T03:46:32.740Z,98243.38
2017-08-01T03:49:00.208Z,98240.16
2017-08-01T03:51:27.710Z,98248.28
2017-08-01T03:53:55.172Z,98245.66
2017-08-01T03:56:22.642Z,98244.62
2017-08-01T03:58:50.087Z,98249.94
2017-08-01T04:01:17.560Z,98248.26
2017-08-01T04:03:45.021Z,98248.52
2017-08-01T04:06:12.496Z,98255.61
2017-08-01T04:08:39.937Z,98256.63
2017-08-01T04:11:07.404Z,98258.64
2017-08-01T04:13:34.987Z,98256.63
2017-08-01T04:16:02.433Z,98256.41
2017-08-01T04:18:29.872Z,98251.80
2017-08-01T04:20:57.348Z,98256.69
2017-08-01T04:23:24.828Z,98259.27
2017-08-01T04:25:52.278Z,98262.59
2017-08-01T04:28:19.944Z,98264.84
2017-08-01T04:30:47.381Z,98269.82
2017-08-01T04:33:14.816Z,98260.23
2017-08-01T04:35:42.280Z,98264.47
2017-08-01T04:38:09.757Z,98266.30
2017-08-01T04:40:37.215Z,98265.61
2017-08-01T04:43:04.681Z,98261.55
2017-08-01T04:45:32.128Z,98263.03
2017-08-01T04:47:59.857Z,98266.55
2017-08-01T04:50:27.300Z,98264.44
2017-08-01T04:52:54.750Z,98259.55
2017-08-01T04:55:22.223Z,98263.03
2017-08-01T04:57:49.688Z,98269.49
2017-08-01T05:00:17.127Z,98276.39
2017-08-01T05:02:44.600Z,98278.31
2017-08-01T05:05:12.060Z,98275.64
2017-08-01T05:07:39.520Z,98274.88
2017-08-01T05:10:06.994Z,98278.55
2017-08-01T05:12:34.465Z,98277.70
2017-08-01T05:15:01.909Z,98276.70
2017-08-01T05:17:29.360Z,98281.50
2017-08-01T05:19:56.839Z,98275.30
2017-08-01T05:22:24.285Z,98269.66
2017-08-01T05:24:52.061Z,98265.44
2017-08-01T05:27:19.501Z,98271.00
2017-08-01T05:29:46.962Z,98270.50
2017-08-01T05:32:14.431Z,98268.23
2017-08-01T05:34:41.901Z,98273.38
2017-08-01T05:37:09.363Z,98272.17
2017-08-01T05:39:36.837Z,98272.58
2017-08-01T05:42:04.293Z,98276.84
2017-08-01T05:44:31.749Z,98281.64
2017-08-01T05:46:59.233Z,98285.09
2017-08-01T05:49:26.682Z,98285.96
2017-08-01T05:51:54.130Z,98282.77
2017-08-01T05:54:21.823Z,98285.04
2017-08-01T05:56:49.275Z,98282.00
2017-08-01T05:59:16.720Z,98280.85
2017-08-01T06:01:44.571Z,98283.22
2017-08-01T06:04:12.012Z,98286.63
2017-08-01T06:06:39.449Z,98285.00
2017-08-01T06:09:06.941Z,98293.55
2017-08-01T06:11:34.721Z,98293.48
2017-08-01T06:14:02.168Z,98285.45
2017-08-01T06:16:29.616Z,98289.19
2017-08-01T06:18:57.089Z,98291.53
2017-08-01T06:21:24.556Z,98293.03
2017-08-01T06:23:52.000Z,98287.11
2017-08-01T06:26:19.450Z,98287.76
2017-08-01T06:28:47.244Z,98281.60
2017-08-01T06:31:14.696Z,98288.87
2017-08-01T06:33:42.145Z,98285.81
2017-08-01T06:36:10.254Z,98280.65
2017-08-01T06:38:37.710Z,98284.05
2017-08-01T06:41:05.181Z,98276.19
2017-08-01T06:43:32.622Z,98284.11
2017-08-01T06:46:00.064Z,98287.36
2017-08-01T06:48:27.549Z,98291.19
2017-08-01T06:50:55.116Z,98283.69
2017-08-01T06:53:22.585Z,98284.29
2017-08-01T06:55:50.041Z,98287.89
2017-08-01T06:58:17.508Z,98284.11
2017-08-01T07:00:44.979Z,98289.98
2017-08-01T07:03:12.455Z,98288.98
2017-08-01T07:05:39.909Z,98289.09
2017-08-01T07:08:07.388Z,98290.02
2017-08-01T07:10:34.833Z,98287.89
2017-08-01T07:13:02.317Z,98287.42
2017-08-01T07:15:29.793Z,98284.52
2017-08-01T07:17:57.244Z,98285.63
2017-08-01T07:20:24.713Z,98294.37
2017-08-01T07:22:52.156Z,98290.10
2017-08-01T07:25:19.639Z,98292.19
2017-08-01T07:27:47.076Z,98299.13
2017-08-01T07:30:14.525Z,98300.06
2017-08-01T07:32:41.987Z,98292.88
2017-08-01T07:35:09.465Z,98293.81
2017-08-01T07:37:36.913Z,98300.66
2017-08-01T07:40:04.385Z,98309.22
2017-08-01T07:42:31.820Z,98313.27
2017-08-01T07:44:59.267Z,98320.22
2017-08-01T07:47:26.736Z,98309.92
2017-08-01T07:49:54.187Z,98315.00
2017-08-01T07:52:21.657Z,98314.21
2017-08-01T07:54:49.107Z,98319.45
2017-08-01T07:57:16.721Z,98315.03
2017-08-01T07:59:44.158Z,98315.97
2017-08-01T08:02:11.616Z,98320.55
2017-08-01T08:04:39.115Z,98324.14
2017-08-01T08:07:06.561Z,98324.94
2017-08-01T08:09:34.005Z,98317.91
2017-08-01T08:12:01.535Z,98317.23
2017-08-01T08:14:28.997Z,98320.08
2017-08-01T08:16:56.468Z,98323.31
2017-08-01T08:19:23.918Z,98317.95
2017-08-01T08:21:51.377Z,98320.70
2017-08-01T08:24:18.849Z,98328.48
2017-08-01T08:26:46.333Z,98329.52
2017-08-01T08:29:13.787Z,98322.38
2017-08-01T08:31:41.253Z,98324.77
2017-08-01T08:34:08.707Z,98318.10
2017-08-01T08:36:36.161Z,98321.11
2017-08-01T08:39:03.644Z,98320.02
2017-08-01T08:41:31.098Z,98318.36
2017-08-01T08:43:58.542Z,98315.37
2017-08-01T08:49:16.523Z,98318.11
2017-08-01T08:51:43.983Z,98323.48
2017-08-01T08:54:11.435Z,98321.56
2017-08-01T08:56:38.917Z,98317.98
2017-08-01T08:59:06.366Z,98323.20
2017-08-01T09:01:33.813Z,98326.03
2017-08-01T09:04:01.285Z,98319.68
2017-08-01T09:06:28.729Z,98326.63
2017-08-01T09:08:56.210Z,98323.95
2017-08-01T09:11:23.673Z,98319.31
2017-08-01T09:13:51.133Z,98317.47
2017-08-01T09:16:18.801Z,98319.16
2017-08-01T09:18:46.253Z,98312.94
2017-08-01T09:21:13.705Z,98308.20
2017-08-01T09:23:41.468Z,98311.64
2017-08-01T09:26:08.918Z,98308.48
2017-08-01T09:28:36.366Z,98305.20
2017-08-01T09:31:04.062Z,98302.61
2017-08-01T09:33:31.511Z,98304.18
2017-08-01T09:35:58.958Z,98296.15
2017-08-01T09:38:26.424Z,98296.92
2017-08-01T09:40:53.868Z,98290.02
2017-08-01T09:43:21.316Z,98293.16
2017-08-01T09:45:48.786Z,98290.70
2017-08-01T09:48:16.270Z,98293.73
2017-08-01T09:50:43.838Z,98293.78
2017-08-01T09:53:11.404Z,98302.09
2017-08-01T09:55:38.896Z,98303.54
2017-08-01T09:58:06.366Z,98308.42
2017-08-01T10:00:33.842Z,98305.28
2017-08-01T10:03:01.480Z,98308.25
2017-08-01T10:05:28.985Z,98310.04
2017-08-01T10:07:56.452Z,98317.22
2017-08-01T10:10:23.910Z,98314.37
2017-08-01T10:12:51.409Z,98314.97
2017-08-01T10:15:18.873Z,98311.48
2017-08-01T10:17:46.358Z,98315.00
2017-08-01T10:20:13.819Z,98313.27
2017-08-01T10:22:41.825Z,98315.41
2017-08-01T10:25:09.488Z,98312.33
2017-08-01T10:27:36.967Z,98309.71
2017-08-01T10:30:04.444Z,98307.36
2017-08-01T10:35:08.561Z,98299.91
2017-08-01T10:37:36.026Z,98291.09
2017-08-01T10:40:03.497Z,98291.66
2017-08-01T10:42:30.955Z,98296.25
2017-08-01T10:44:58.433Z,98291.22
2017-08-01T10:47:25.881Z,98295.33
2017-08-01T10:49:53.333Z,98294.64
2017-08-01T10:52:20.935Z,98290.63
2017-08-01T10:54:48.398Z,98286.83
2017-08-01T10:57:15.845Z,98283.83
2017-08-01T10:59:43.333Z,98273.52
2017-08-01T11:02:10.779Z,98269.87
2017-08-01T11:04:38.244Z,98260.12
2017-08-01T11:07:05.862Z,98264.69
2017-08-01T11:09:33.326Z,98257.31
2017-08-01T11:12:00.825Z,98266.11
2017-08-01T11:14:28.300Z,98254.17
2017-08-01T11:16:55.789Z,98254.80
2017-08-01T11:19:23.249Z,98259.08
2017-08-01T11:21:50.917Z,98249.80
2017-08-01T11:24:18.358Z,98245.50
2017-08-01T11:26:45.801Z,98239.41
2017-08-01T11:29:13.277Z,98238.08
2017-08-01T11:31:40.762Z,98234.33
2017-08-01T11:34:08.212Z,98238.44
2017-08-01T11:36:35.752Z,98244.50
2017-08-01T11:39:03.451Z,98239.94
2017-08-01T11:41:30.914Z,98241.64
2017-08-01T11:43:58.393Z,98235.27
2017-08-01T11:46:25.848Z,98232.48
2017-08-01T11:48:53.319Z,98225.14
2017-08-01T11:51:20.781Z,98227.11
2017-08-01T11:53:48.234Z,98221.47
2017-08-01T11:56:15.722Z,98220.39
2017-08-01T11:58:43.193Z,98219.19
2017-08-01T12:01:10.638Z,98213.94
2017-08-01T12:03:38.086Z,98220.52
2017-08-01T12:06:05.557Z,98209.31
2017-08-01T12:08:32.996Z,98207.63
2017-08-01T12:11:00.478Z,98199.50
2017-08-01T12:13:27.938Z,98202.34
2017-08-01T12:15:55.385Z,98194.56
2017-08-01T12:18:22.857Z,98187.95
2017-08-01T12:20:50.305Z,98179.67
2017-08-01T12:23:17.793Z,98187.59
2017-08-01T12:25:45.234Z,98178.31
2017-08-01T12:28:12.708Z,98185.07
2017-08-01T12:30:40.184Z,98180.14
2017-08-01T12:33:07.660Z,98180.72
2017-08-01T12:35:35.094Z,98171.27
2017-08-01T12:38:02.558Z,98174.70
2017-08-01T12:40:29.997Z,98168.33
2017-08-01T12:42:57.467Z,98167.62
2017-08-01T12:45:24.917Z,98171.98
2017-08-01T12:47:52.385Z,98160.51
2017-08-01T12:50:19.831Z,98157.08
2017-08-01T12:52:47.301Z,98159.61
2017-08-01T12:55:14.785Z,98154.70
2017-08-01T12:57:42.242Z,98149.37
2017-08-01T13:00:09.905Z,98152.78
2017-08-01T13:02:37.352Z,98148.73
2017-08-01T13:05:04.801Z,98147.09
2017-08-01T13:07:32.269Z,98150.36
2017-08-01T13:09:59.737Z,98145.92
2017-08-01T13:12:27.216Z,98151.27
2017-08-01T13:14:54.681Z,98154.42
2017-08-01T13:17:22.150Z,98152.66
2017-08-01T13:19:49.593Z,98152.58
2017-08-01T13:22:17.061Z,98151.23
2017-08-01T13:24:44.530Z,98146.89
2017-08-01T13:27:12.067Z,98144.61
2017-08-01T13:29:39.545Z,98143.94
2017-08-01T13:32:06.992Z,98139.70
2017-08-01T13:34:34.480Z,98140.25
2017-08-01T13:37:01.922Z,98139.53
2017-08-01T13:39:29.369Z,98133.95
2017-08-01T13:41:56.832Z,98134.88
2017-08-01T13:44:24.296Z,98126.53
2017-08-01T13:46:51.774Z,98120.68
2017-08-01T13:49:19.332Z,98124.50
2017-08-01T13:51:46.769Z,98113.43
2017-08-01T13:54:14.208Z,98116.41
2017-08-01T13:56:41.669Z,98114.18
2017-08-01T13:59:09.123Z,98116.53
2017-08-01T14:01:36.595Z,98114.75
2017-08-01T14:04:04.068Z,98116.97
2017-08-01T14:06:31.538Z,98113.12
2017-08-01T14:08:59.008Z,98124.47
2017-08-01T14:11:26.464Z,98122.08
2017-08-01T14:13:53.945Z,98117.14
2017-08-01T14:16:21.388Z,98118.98
2017-08-01T14:18:48.832Z,98119.23
2017-08-01T14:21:16.298Z,98117.03
2017-08-01T14:23:43.741Z,98115.02
2017-08-01T14:26:11.223Z,98120.25
2017-08-01T14:28:38.671Z,98112.91
2017-08-01T14:33:42.949Z,98106.22
2017-08-01T14:36:10.970Z,98099.59
2017-08-01T14:38:38.417Z,98096.28
2017-08-01T14:41:05.889Z,98100.89
2017-08-01T14:43:33.337Z,98097.03
2017-08-01T14:46:00.798Z,98095.59
2017-08-01T14:48:28.606Z,98096.69
2017-08-01T14:50:56.046Z,98093.17
2017-08-01T14:53:23.493Z,98087.30
2017-08-01T14:55:51.302Z,98084.81
2017-08-01T14:58:18.756Z,98091.48
2017-08-01T15:00:46.197Z,98087.83
2017-08-01T15:03:13.665Z,98080.50
2017-08-01T15:05:41.195Z,98075.78
2017-08-01T15:08:08.657Z,98079.50
2017-08-01T15:10:36.114Z,98072.33
2017-08-01T15:13:03.586Z,98067.59
2017-08-01T15:15:31.033Z,98068.95
2017-08-01T15:17:58.512Z,98055.61
2017-08-01T15:20:25.980Z,98058.82
2017-08-01T15:22:53.448Z,98061.02
2017-08-01T15:25:21.128Z,98050.80
2017-08-01T15:27:48.580Z,98049.66
2017-08-01T15:30:16.026Z,98048.80
2017-08-01T15:32:43.548Z,98039.55
2017-08-01T15:35:11.021Z,98034.11
2017-08-01T15:37:38.509Z,98029.02
2017-08-01T15:40:05.998Z,98025.39
2017-08-01T15:42:33.450Z,98021.83
2017-08-01T15:45:01.114Z,98020.86
2017-08-01T15:47:28.585Z,98014.34
2017-08-01T15:49:56.037Z,98018.70
2017-08-01T15:52:23.505Z,98019.29
2017-08-01T15:54:50.957Z,98006.56
2017-08-01T15:57:18.729Z,98009.59
2017-08-01T15:59:46.208Z,98004.39
2017-08-01T16:02:13.650Z,98000.28
2017-08-01T16:04:41.120Z,98002.03
2017-08-01T16:07:08.560Z,98010.14
2017-08-01T16:09:36.045Z,98008.23
2017-08-01T16:12:03.518Z,98004.73
2017-08-01T16:14:30.957Z,98009.15
2017-08-01T16:16:58.454Z,97999.66
2017-08-01T16:19:25.919Z,97997.59
2017-08-01T16:21:53.373Z,98000.84
2017-08-01T16:24:20.841Z,97990.53
2017-08-01T16:26:48.299Z,97990.30
2017-08-01T16:29:15.781Z,97991.33
2017-08-01T16:31:43.229Z,97994.05
2017-08-01T16:34:10.681Z,97988.13
2017-08-01T16:36:38.381Z,97987.39
2017-08-01T16:39:05.838Z,97978.36
2017-08-01T16:41:33.293Z,97985.10
2017-08-01T16:44:00.772Z,97978.69
2017-08-01T16:46:28.252Z,97978.20
2017-08-01T16:48:55.728Z,97980.07
2017-08-01T16:51:23.200Z,97977.44
2017-08-01T16:53:50.655Z,97973.94
2017-08-01T16:56:18.134Z,97978.66
2017-08-01T16:58:45.590Z,97979.92
2017-08-01T17:01:13.060Z,97973.22
2017-08-01T17:03:40.530Z,97977.08
2017-08-01T17:06:08.015Z,97968.72
2017-08-01T17:08:35.477Z,97969.66
2017-08-01T17:11:02.924Z,97979.40
2017-08-01T17:13:30.388Z,97974.91
2017-08-01T17:15:57.865Z,97974.42
2017-08-01T17:18:25.398Z,97972.43
2017-08-01T17:20:52.884Z,97970.94
2017-08-01T17:23:20.352Z,97965.37
2017-08-01T17:25:47.821Z,97960.24
2017-08-01T17:28:15.269Z,97961.57
2017-08-01T17:30:42.737Z,97957.53
2017-08-01T17:33:10.180Z,97949.82
2017-08-01T17:35:37.648Z,97947.52
2017-08-01T17:38:05.119Z,97942.64
2017-08-01T17:40:32.578Z,97940.56
2017-08-01T17:43:00.025Z,97944.33
2017-08-01T17:45:27.505Z,97936.35
2017-08-01T17:47:54.959Z,97933.72
2017-08-01T17:50:22.425Z,97932.72
2017-08-01T17:52:49.899Z,97936.77
2017-08-01T17:55:17.373Z,97931.81
2017-08-01T17:57:44.816Z,97928.59
2017-08-01T18:00:12.294Z,97922.34
2017-08-01T18:02:39.947Z,97923.40
2017-08-01T18:05:07.426Z,97922.92
2017-08-01T18:07:34.869Z,97923.41
2017-08-01T18:10:02.477Z,97926.08
2017-08-01T18:12:29.922Z,97918.81
2017-08-01T18:14:57.386Z,97917.58
2017-08-01T18:17:24.864Z,97919.61
2017-08-01T18:19:52.318Z,97920.33
2017-08-01T18:22:19.762Z,97920.37
2017-08-01T18:24:47.241Z,97924.09
2017-08-01T18:27:14.689Z,97935.22
2017-08-01T18:29:42.135Z,97943.58
2017-08-01T18:32:09.622Z,97942.64
2017-08-01T18:34:37.073Z,97944.81
2017-08-01T18:37:04.542Z,97938.30
2017-08-01T18:39:32.025Z,97945.03
2017-08-01T18:41:59.495Z,97945.78
2017-08-01T18:44:26.949Z,97959.80
2017-08-01T18:46:54.447Z,97957.75
2017-08-01T18:49:21.927Z,97957.28
2017-08-01T18:51:49.376Z,97953.79
2017-08-01T18:54:16.841Z,97955.99
2017-08-01T18:56:44.336Z,97958.14
2017-08-01T18:59:11.795Z,97966.14
2017-08-01T19:01:39.272Z,97965.66
2017-08-01T19:04:06.730Z,97961.30
2017-08-01T19:06:34.172Z,97958.22
2017-08-01T19:09:01.664Z,97942.98
2017-08-01T19:11:29.109Z,97940.84
2017-08-01T19:13:56.582Z,97944.48
2017-08-01T19:16:24.042Z,97930.58
2017-08-01T19:18:51.513Z,97917.69
2017-08-01T19:21:19.013Z,97919.20
2017-08-01T19:23:46.485Z,97925.83
2017-08-01T19:26:13.945Z,97922.75
2017-08-01T19:28:41.413Z,97926.81
2017-08-01T19:31:08.910Z,97936.94
2017-08-01T19:33:36.348Z,97935.23
2017-08-01T19:36:03.802Z,97929.44
2017-08-01T19:38:31.269Z,97924.16
2017-08-01T19:40:58.710Z,97921.75
2017-08-01T19:43:26.189Z,97930.88
2017-08-01T19:45:53.653Z,97933.13
2017-08-01T19:48:21.121Z,97935.69
2017-08-01T19:50:48.582Z,97934.53
2017-08-01T19:53:16.041Z,97930.36
2017-08-01T19:55:43.516Z,97938.02
2017-08-01T19:58:10.974Z,97932.11
2017-08-01T20:00:38.442Z,97935.63
2017-08-01T20:03:05.893Z,97945.23
2017-08-01T20:05:33.370Z,97950.87
2017-08-01T20:08:00.817Z,97967.81
2017-08-01T20:10:28.306Z,97966.91
2017-08-01T20:12:55.748Z,97968.88
2017-08-01T20:15:23.223Z,97954.77
2017-08-01T20:17:50.672Z,97955.27
2017-08-01T20:20:18.489Z,97963.26
2017-08-01T20:22:45.935Z,97962.82
2017-08-01T20:25:13.470Z,97974.42
2017-08-01T20:27:40.947Z,97975.81
2017-08-01T20:30:08.422Z,97981.13
2017-08-01T20:32:35.870Z,97993.30
2017-08-01T20:35:03.338Z,98002.25
2017-08-01T20:37:30.790Z,98005.22
2017-08-01T20:39:58.270Z,98021.12
2017-08-01T20:42:25.740Z,98029.41
2017-08-01T20:44:54.052Z,98036.59
2017-08-01T20:47:21.509Z,98038.66
2017-08-01T20:49:48.990Z,98041.58
2017-08-01T20:52:16.437Z,98039.15
2017-08-01T20:54:43.926Z,98039.08
2017-08-01T20:57:11.386Z,98047.52
2017-08-01T20:59:38.870Z,98047.47
2017-08-01T21:02:06.884Z,98053.49
2017-08-01T21:04:34.381Z,98055.59
2017-08-01T21:07:01.825Z,98057.21
2017-08-01T21:09:29.314Z,98056.98
2017-08-01T21:11:57.662Z,98055.61
2017-08-01T21:14:25.559Z,98068.20
2017-08-01T21:16:53.173Z,98074.04
2017-08-01T21:19:21.800Z,98075.72
2017-08-01T21:21:49.846Z,98087.71
2017-08-01T21:24:17.373Z,98088.27
2017-08-01T21:26:44.845Z,98094.16
2017-08-01T21:29:12.332Z,98094.30
2017-08-01T21:31:39.793Z,98098.84
2017-08-01T21:34:07.270Z,98101.16
2017-08-01T21:36:34.757Z,98115.70
2017-08-01T21:39:02.225Z,98174.89
2017-08-01T21:41:29.732Z,98258.19
2017-08-01T21:43:57.188Z,98273.08
2017-08-01T21:46:24.789Z,98240.98
2017-08-01T21:48:52.238Z,98266.78
2017-08-01T21:51:19.699Z,98276.58
2017-08-01T21:53:47.166Z,98299.84
2017-08-01T21:56:14.624Z,98318.48
2017-08-01T21:58:42.098Z,98329.30
2017-08-01T22:01:09.569Z,98354.45
2017-08-01T22:03:37.070Z,98389.19
2017-08-01T22:06:04.553Z,98374.33
2017-08-01T22:08:32.013Z,98336.08
2017-08-01T22:10:59.489Z,98401.17
2017-08-01T22:13:26.946Z,98400.81
2017-08-01T22:15:54.414Z,98393.77
2017-08-01T22:18:22.086Z,98374.23
2017-08-01T22:20:49.530Z,98399.66
2017-08-01T22:23:16.975Z,98374.12
2017-08-01T22:25:44.437Z,98395.39
2017-08-01T22:28:13.159Z,98420.84
2017-08-01T22:30:40.779Z,98401.09
2017-08-01T22:33:08.225Z,98389.80
2017-08-01T22:35:35.680Z,98389.68
2017-08-01T22:38:03.155Z,98399.08
2017-08-01T22:40:30.600Z,98391.39
2017-08-01T22:42:58.064Z,98384.09
2017-08-01T22:45:25.544Z,98371.95
2017-08-01T22:47:52.993Z,98355.33
2017-08-01T22:50:20.470Z,98338.20
2017-08-01T22:52:48.153Z,98312.80
2017-08-01T22:55:15.617Z,98288.18
2017-08-01T22:57:43.065Z,98269.20
2017-08-01T23:00:10.515Z,98253.86
2017-08-01T23:02:37.987Z,98239.63
2017-08-01T23:05:05.437Z,98246.06
2017-08-01T23:07:32.893Z,98255.89
2017-08-01T23:10:00.345Z,98238.48
2017-08-01T23:12:27.985Z,98259.12
2017-08-01T23:14:55.433Z,98243.69
2017-08-01T23:17:22.876Z,98252.95
2017-08-01T23:19:50.723Z,98255.48
2017-08-01T23:22:18.163Z,98239.95
2017-08-01T23:24:45.611Z,98244.06
2017-08-01T23:27:13.084Z,98247.31
2017-08-01T23:29:40.530Z,98247.39
2017-08-01T23:32:07.997Z,98254.84
2017-08-01T23:34:35.465Z,98251.16
2017-08-01T23:37:02.920Z,98256.48
2017-08-01T23:39:30.395Z,98265.88
2017-08-01T23:41:57.860Z,98281.09
2017-08-01T23:44:25.300Z,98285.97
2017-08-01T23:46:52.740Z,98289.27
2017-08-01T23:49:20.208Z,98290.89
2017-08-01T23:51:47.701Z,98300.33
2017-08-01T23:54:15.151Z,98311.83
2017-08-01T23:56:42.605Z,98323.41
2017-08-01T23:59:10.073Z,98336.82
